Ashley Falls, Massachusetts
Current Conditions -  °F | °C
As of 12:54 PM on Friday 31 Oct 2014 (Local Time) from KPSF Reporting Station
Overcast Overcast  
Wind Chill: 45°   Ceiling: 3800
Heat Index: 47°   Visibility: 10mi
Dew Point: 34°   Wind: 5mph
Humidity: 61%   Direction: 120°ESE
Pressure: 29.96"   Gusts: NA
Location:  42.06°N, 73.34°W
Report Text: KPSF 311654Z AUTO 12004KT 10SM OVC038 08/01 A2996 RMK AO2 SLP145 T00830011
Loading
Personal Weather Stations






























Interactive Weather Map
Tropical Storm Tracking
New forecast layout! Learn more

10-Day Weather Forecast

Advertisements
Track Severe Weather on mobile